Rodman, New York
Current Conditions -  °F | °C
As of 12:40 PM on Thursday 30 Oct 2014 (Local Time) from KART Reporting Station
Overcast Overcast  
Wind Chill: 45°   Ceiling: 3000
Heat Index: 47°   Visibility: 8mi
Dew Point: 32°   Wind: 5mph
Humidity: 56%   Direction: 280°W
Pressure: 30.03"   Gusts: NA
Location:  43.85°N, 75.94°W
Report Text: KART 301640Z AUTO 28004KT 8SM OVC030 08/00 A3003 RMK AO2 T00830000
Loading
Personal Weather Stations






























Interactive Weather Map
Tropical Storm Tracking
New forecast layout! Learn more

10-Day Weather Forecast

Advertisements
Track Severe Weather on mobile